Franksville, WI

5:37 PM CST on February 08, 2016 (GMT -0600)
My Observatory 108th & 4-1/2 mile Rd | | Change Station
CLOSE
Current Station
Personal Weather Station
Location: Franksville, WI
Elevation: 810 ft
Nearby Weather Stations

Elev 810 ft 42.79 °N, 88.05 °W | Updated 7 seconds ago

Snow
Snow
24.5 °F
Feels Like 14 °F
N
11.7
Wind Variable Wind from WNW
Gusts 14.9 mph

Today
High -- | Low -- °F
--% Chance of Precip.
Yesterday
High -- | Low -- °F
Precip. -- in
Pressure 29.72 in
Visibility 1.8 miles
Clouds Overcast 2300 ft
Windchill 14 °F
Dew Point 20 °F
Humidity 82%
Rainfall 0.00 in
Snow Depth Not available.
6:58 AM 5:13 PM
New Moon, 0% visible
SPECI KRAC 082321Z AUTO 30010KT 1 3/4SM -SN OVC023 M03/M07 A2972 RMK AO2 UPE05SNB05 P0000 T10331067
Pressure 29.72 in
Visibility 1.8 miles
Clouds Overcast 2300 ft
Windchill 14 °F
Dew Point 20 °F
Humidity 82%
Rainfall 0.00 in
Snow Depth Not available.
6:58 AM 5:13 PM
New Moon, 0% visible
SPECI KRAC 082321Z AUTO 30010KT 1 3/4SM -SN OVC023 M03/M07 A2972 RMK AO2 UPE05SNB05 P0000 T10331067

10-Day Weather Forecast

Almanac

Astronomy

Feb. 08, 2016 Rise Set
Actual Time
Civil Twilight
Nautical Twilight
Astronomical Twilight
Moon
Length of Visible Light
Length of Day
Tomorrow will be .
, % of the Moon is Illuminated

Today's Extremes

State Highs State Lows

Community

WunderPhotos

Upload Photos

1,891,525 photos uploaded!

WunderBlog® & News

Nearby

Air Quality

  Air Quality AQ Index Pollutant
Not available.

Snow Depth

Station Depth Elevation

Earthquake Activity

City Distance Mag. Time & Date
Minimum magnitude displayed is 2.5.

Coastal Water Temperatures

Place Temperature

Stations

Nearby Weather Stations

Station Location Temp. Windchill Dew Point Humidity Wind Precip. Elev Updated Type
                   

Watches & Warnings

There are currently no watches in effect.